sensor_id;sensor_type;location;lat;lon;timestamp;P1;durP1;ratioP1;P2;durP2;ratioP2
74707;SDS011;63360;50.104;8.074;2023-06-10T00:01:02;10.20;;;6.20;;
74707;SDS011;63360;50.104;8.074;2023-06-10T00:03:29;8.68;;;6.40;;
74707;SDS011;63360;50.104;8.074;2023-06-10T00:05:56;10.00;;;6.10;;
74707;SDS011;63360;50.104;8.074;2023-06-10T00:08:22;9.02;;;6.57;;
74707;SDS011;63360;50.104;8.074;2023-06-10T00:10:49;8.43;;;6.20;;
74707;SDS011;63360;50.104;8.074;2023-06-10T00:13:15;9.23;;;6.35;;
74707;SDS011;63360;50.104;8.074;2023-06-10T00:15:42;9.02;;;6.18;;
74707;SDS011;63360;50.104;8.074;2023-06-10T00:18:09;8.20;;;6.57;;
74707;SDS011;63360;50.104;8.074;2023-06-10T00:20:36;8.95;;;6.07;;
74707;SDS011;63360;50.104;8.074;2023-06-10T00:23:04;8.60;;;6.27;;
74707;SDS011;63360;50.104;8.074;2023-06-10T00:25:32;8.90;;;6.03;;
74707;SDS011;63360;50.104;8.074;2023-06-10T00:27:59;7.65;;;6.03;;
74707;SDS011;63360;50.104;8.074;2023-06-10T00:30:25;11.10;;;6.13;;
74707;SDS011;63360;50.104;8.074;2023-06-10T00:32:52;8.25;;;5.47;;
74707;SDS011;63360;50.104;8.074;2023-06-10T00:35:19;8.30;;;6.10;;
74707;SDS011;63360;50.104;8.074;2023-06-10T00:37:45;9.00;;;5.53;;
74707;SDS011;63360;50.104;8.074;2023-06-10T00:40:12;7.85;;;5.88;;
74707;SDS011;63360;50.104;8.074;2023-06-10T00:42:39;8.45;;;5.75;;
74707;SDS011;63360;50.104;8.074;2023-06-10T00:45:05;7.68;;;5.57;;
74707;SDS011;63360;50.104;8.074;2023-06-10T00:47:33;6.97;;;5.37;;
74707;SDS011;63360;50.104;8.074;2023-06-10T00:50:01;7.40;;;5.57;;
74707;SDS011;63360;50.104;8.074;2023-06-10T00:52:29;9.82;;;5.75;;
74707;SDS011;63360;50.104;8.074;2023-06-10T00:54:56;7.55;;;5.57;;
74707;SDS011;63360;50.104;8.074;2023-06-10T00:57:23;8.70;;;5.85;;
74707;SDS011;63360;50.104;8.074;2023-06-10T00:59:50;8.53;;;5.67;;
74707;SDS011;63360;50.104;8.074;2023-06-10T01:02:17;7.55;;;5.35;;
74707;SDS011;63360;50.104;8.074;2023-06-10T01:04:43;8.20;;;5.40;;
74707;SDS011;63360;50.104;8.074;2023-06-10T01:07:31;6.85;;;4.97;;
74707;SDS011;63360;50.104;8.074;2023-06-10T01:10:04;8.43;;;5.70;;
74707;SDS011;63360;50.104;8.074;2023-06-10T01:12:39;7.77;;;5.10;;
74707;SDS011;63360;50.104;8.074;2023-06-10T01:15:06;6.88;;;5.03;;
74707;SDS011;63360;50.104;8.074;2023-06-10T01:17:37;9.65;;;5.20;;
74707;SDS011;63360;50.104;8.074;2023-06-10T01:20:20;10.38;;;5.22;;
74707;SDS011;63360;50.104;8.074;2023-06-10T01:22:46;8.25;;;5.35;;
74707;SDS011;63360;50.104;8.074;2023-06-10T01:25:14;7.37;;;4.77;;
74707;SDS011;63360;50.104;8.074;2023-06-10T01:27:40;9.00;;;5.43;;
74707;SDS011;63360;50.104;8.074;2023-06-10T01:30:11;7.80;;;4.88;;
74707;SDS011;63360;50.104;8.074;2023-06-10T01:32:45;7.47;;;5.15;;
74707;SDS011;63360;50.104;8.074;2023-06-10T01:35:17;9.05;;;4.85;;
74707;SDS011;63360;50.104;8.074;2023-06-10T01:37:46;7.13;;;5.30;;
74707;SDS011;63360;50.104;8.074;2023-06-10T01:40:16;6.72;;;5.03;;
74707;SDS011;63360;50.104;8.074;2023-06-10T01:42:42;8.05;;;5.20;;
74707;SDS011;63360;50.104;8.074;2023-06-10T01:45:09;7.18;;;5.05;;
74707;SDS011;63360;50.104;8.074;2023-06-10T01:47:36;7.88;;;5.20;;
74707;SDS011;63360;50.104;8.074;2023-06-10T01:50:03;8.33;;;4.90;;
74707;SDS011;63360;50.104;8.074;2023-06-10T01:52:30;8.02;;;5.30;;
74707;SDS011;63360;50.104;8.074;2023-06-10T01:54:56;6.88;;;5.13;;
74707;SDS011;63360;50.104;8.074;2023-06-10T01:57:23;7.68;;;5.75;;
74707;SDS011;63360;50.104;8.074;2023-06-10T01:59:49;7.90;;;5.15;;
74707;SDS011;63360;50.104;8.074;2023-06-10T02:02:15;7.23;;;5.47;;
74707;SDS011;63360;50.104;8.074;2023-06-10T02:04:42;9.48;;;5.40;;
74707;SDS011;63360;50.104;8.074;2023-06-10T02:07:08;7.25;;;5.30;;
74707;SDS011;63360;50.104;8.074;2023-06-10T02:09:35;7.35;;;5.03;;
74707;SDS011;63360;50.104;8.074;2023-06-10T02:12:03;8.63;;;5.50;;
74707;SDS011;63360;50.104;8.074;2023-06-10T02:14:32;7.93;;;5.20;;
74707;SDS011;63360;50.104;8.074;2023-06-10T02:16:59;8.63;;;5.53;;
74707;SDS011;63360;50.104;8.074;2023-06-10T02:19:25;7.70;;;5.47;;
74707;SDS011;63360;50.104;8.074;2023-06-10T02:21:52;6.78;;;4.85;;
74707;SDS011;63360;50.104;8.074;2023-06-10T02:24:19;7.28;;;5.22;;
74707;SDS011;63360;50.104;8.074;2023-06-10T02:26:46;7.77;;;4.73;;
74707;SDS011;63360;50.104;8.074;2023-06-10T02:29:14;8.23;;;5.10;;
74707;SDS011;63360;50.104;8.074;2023-06-10T02:31:40;8.05;;;4.97;;
74707;SDS011;63360;50.104;8.074;2023-06-10T02:34:07;8.32;;;5.20;;
74707;SDS011;63360;50.104;8.074;2023-06-10T02:36:33;7.35;;;5.20;;
74707;SDS011;63360;50.104;8.074;2023-06-10T02:39:02;6.90;;;4.87;;
74707;SDS011;63360;50.104;8.074;2023-06-10T02:41:30;7.40;;;4.82;;
74707;SDS011;63360;50.104;8.074;2023-06-10T02:43:56;8.88;;;5.40;;
74707;SDS011;63360;50.104;8.074;2023-06-10T02:46:23;7.30;;;5.13;;
74707;SDS011;63360;50.104;8.074;2023-06-10T02:48:49;9.70;;;5.22;;
74707;SDS011;63360;50.104;8.074;2023-06-10T02:51:18;8.40;;;5.43;;
74707;SDS011;63360;50.104;8.074;2023-06-10T02:53:44;8.30;;;5.22;;
74707;SDS011;63360;50.104;8.074;2023-06-10T02:56:11;9.98;;;5.60;;
74707;SDS011;63360;50.104;8.074;2023-06-10T02:58:38;7.78;;;5.22;;
74707;SDS011;63360;50.104;8.074;2023-06-10T03:01:05;7.22;;;5.75;;
74707;SDS011;63360;50.104;8.074;2023-06-10T03:03:31;6.97;;;4.87;;
74707;SDS011;63360;50.104;8.074;2023-06-10T03:05:59;7.63;;;5.00;;
74707;SDS011;63360;50.104;8.074;2023-06-10T03:08:26;7.10;;;5.10;;
74707;SDS011;63360;50.104;8.074;2023-06-10T03:10:52;9.27;;;5.60;;
74707;SDS011;63360;50.104;8.074;2023-06-10T03:13:19;11.02;;;5.28;;
74707;SDS011;63360;50.104;8.074;2023-06-10T03:15:45;7.50;;;5.47;;
74707;SDS011;63360;50.104;8.074;2023-06-10T03:18:12;8.35;;;5.45;;
74707;SDS011;63360;50.104;8.074;2023-06-10T03:20:38;8.38;;;5.47;;
74707;SDS011;63360;50.104;8.074;2023-06-10T03:23:05;8.98;;;5.30;;
74707;SDS011;63360;50.104;8.074;2023-06-10T03:25:32;8.77;;;5.10;;
74707;SDS011;63360;50.104;8.074;2023-06-10T03:27:59;7.40;;;5.17;;
74707;SDS011;63360;50.104;8.074;2023-06-10T03:30:26;9.07;;;5.80;;
74707;SDS011;63360;50.104;8.074;2023-06-10T03:32:53;9.50;;;6.03;;
74707;SDS011;63360;50.104;8.074;2023-06-10T03:35:20;8.45;;;5.85;;
74707;SDS011;63360;50.104;8.074;2023-06-10T03:37:46;8.45;;;6.05;;
74707;SDS011;63360;50.104;8.074;2023-06-10T03:40:13;8.77;;;5.70;;
74707;SDS011;63360;50.104;8.074;2023-06-10T03:42:40;9.23;;;5.88;;
74707;SDS011;63360;50.104;8.074;2023-06-10T03:45:06;7.65;;;5.95;;
74707;SDS011;63360;50.104;8.074;2023-06-10T03:47:34;8.88;;;5.70;;
74707;SDS011;63360;50.104;8.074;2023-06-10T03:50:04;9.35;;;6.50;;
74707;SDS011;63360;50.104;8.074;2023-06-10T03:52:31;9.47;;;6.10;;
74707;SDS011;63360;50.104;8.074;2023-06-10T03:54:57;9.20;;;6.10;;
74707;SDS011;63360;50.104;8.074;2023-06-10T03:57:24;9.10;;;5.57;;
74707;SDS011;63360;50.104;8.074;2023-06-10T03:59:51;8.27;;;6.00;;
74707;SDS011;63360;50.104;8.074;2023-06-10T04:02:17;9.75;;;6.38;;
74707;SDS011;63360;50.104;8.074;2023-06-10T04:04:44;8.83;;;6.30;;
74707;SDS011;63360;50.104;8.074;2023-06-10T04:07:11;7.95;;;6.05;;
74707;SDS011;63360;50.104;8.074;2023-06-10T04:09:38;10.23;;;6.18;;
74707;SDS011;63360;50.104;8.074;2023-06-10T04:12:05;9.75;;;6.05;;
74707;SDS011;63360;50.104;8.074;2023-06-10T04:14:36;8.55;;;6.50;;
74707;SDS011;63360;50.104;8.074;2023-06-10T04:17:04;9.93;;;6.37;;
74707;SDS011;63360;50.104;8.074;2023-06-10T04:19:35;8.93;;;6.32;;
74707;SDS011;63360;50.104;8.074;2023-06-10T04:22:01;11.23;;;6.60;;
74707;SDS011;63360;50.104;8.074;2023-06-10T04:24:29;9.85;;;6.60;;
74707;SDS011;63360;50.104;8.074;2023-06-10T04:26:55;9.57;;;6.78;;
74707;SDS011;63360;50.104;8.074;2023-06-10T04:29:22;8.83;;;6.57;;
74707;SDS011;63360;50.104;8.074;2023-06-10T04:31:48;8.73;;;6.07;;
74707;SDS011;63360;50.104;8.074;2023-06-10T04:34:15;9.70;;;6.43;;
74707;SDS011;63360;50.104;8.074;2023-06-10T04:36:41;9.05;;;6.60;;
74707;SDS011;63360;50.104;8.074;2023-06-10T04:39:08;8.30;;;6.05;;
74707;SDS011;63360;50.104;8.074;2023-06-10T04:41:35;8.00;;;6.10;;
74707;SDS011;63360;50.104;8.074;2023-06-10T04:44:01;8.35;;;6.70;;
74707;SDS011;63360;50.104;8.074;2023-06-10T04:46:28;8.20;;;6.57;;
74707;SDS011;63360;50.104;8.074;2023-06-10T04:48:56;9.13;;;7.03;;
74707;SDS011;63360;50.104;8.074;2023-06-10T04:51:23;9.18;;;6.82;;
74707;SDS011;63360;50.104;8.074;2023-06-10T04:53:49;8.83;;;6.60;;
74707;SDS011;63360;50.104;8.074;2023-06-10T04:56:16;9.07;;;7.05;;
74707;SDS011;63360;50.104;8.074;2023-06-10T04:58:42;9.82;;;7.25;;
74707;SDS011;63360;50.104;8.074;2023-06-10T05:01:09;9.18;;;7.30;;
74707;SDS011;63360;50.104;8.074;2023-06-10T05:03:35;9.48;;;7.10;;
74707;SDS011;63360;50.104;8.074;2023-06-10T05:06:02;10.10;;;7.50;;
74707;SDS011;63360;50.104;8.074;2023-06-10T05:08:28;10.65;;;7.20;;
74707;SDS011;63360;50.104;8.074;2023-06-10T05:10:55;10.02;;;7.25;;
74707;SDS011;63360;50.104;8.074;2023-06-10T05:13:21;11.10;;;7.40;;
74707;SDS011;63360;50.104;8.074;2023-06-10T05:15:47;9.20;;;7.10;;
74707;SDS011;63360;50.104;8.074;2023-06-10T05:18:14;11.03;;;8.17;;
74707;SDS011;63360;50.104;8.074;2023-06-10T05:20:40;9.75;;;7.35;;
74707;SDS011;63360;50.104;8.074;2023-06-10T05:23:07;9.45;;;7.63;;
74707;SDS011;63360;50.104;8.074;2023-06-10T05:25:34;9.48;;;7.70;;
74707;SDS011;63360;50.104;8.074;2023-06-10T05:28:01;10.02;;;7.57;;
74707;SDS011;63360;50.104;8.074;2023-06-10T05:30:28;9.37;;;7.70;;
74707;SDS011;63360;50.104;8.074;2023-06-10T05:32:54;9.60;;;7.65;;
74707;SDS011;63360;50.104;8.074;2023-06-10T05:35:22;9.27;;;7.07;;
74707;SDS011;63360;50.104;8.074;2023-06-10T05:37:49;9.77;;;7.70;;
74707;SDS011;63360;50.104;8.074;2023-06-10T05:40:15;8.73;;;7.28;;
74707;SDS011;63360;50.104;8.074;2023-06-10T05:42:41;10.27;;;7.23;;
74707;SDS011;63360;50.104;8.074;2023-06-10T05:45:08;8.90;;;7.13;;
74707;SDS011;63360;50.104;8.074;2023-06-10T05:47:36;9.85;;;7.78;;
74707;SDS011;63360;50.104;8.074;2023-06-10T05:50:02;10.10;;;7.28;;
74707;SDS011;63360;50.104;8.074;2023-06-10T05:52:33;9.13;;;6.85;;
74707;SDS011;63360;50.104;8.074;2023-06-10T05:55:00;8.73;;;7.50;;
74707;SDS011;63360;50.104;8.074;2023-06-10T05:57:27;10.15;;;7.47;;
74707;SDS011;63360;50.104;8.074;2023-06-10T05:59:53;8.40;;;7.30;;
74707;SDS011;63360;50.104;8.074;2023-06-10T06:02:20;8.80;;;7.13;;
74707;SDS011;63360;50.104;8.074;2023-06-10T06:04:46;8.85;;;7.15;;
74707;SDS011;63360;50.104;8.074;2023-06-10T06:07:13;8.87;;;7.00;;
74707;SDS011;63360;50.104;8.074;2023-06-10T06:09:39;7.90;;;6.80;;
74707;SDS011;63360;50.104;8.074;2023-06-10T06:12:06;8.35;;;7.40;;
74707;SDS011;63360;50.104;8.074;2023-06-10T06:14:36;8.80;;;7.38;;
74707;SDS011;63360;50.104;8.074;2023-06-10T06:17:05;9.43;;;7.63;;
74707;SDS011;63360;50.104;8.074;2023-06-10T06:19:32;9.77;;;6.80;;
74707;SDS011;63360;50.104;8.074;2023-06-10T06:21:59;9.32;;;7.20;;
74707;SDS011;63360;50.104;8.074;2023-06-10T06:24:25;8.70;;;7.63;;
74707;SDS011;63360;50.104;8.074;2023-06-10T06:26:52;8.32;;;7.43;;
74707;SDS011;63360;50.104;8.074;2023-06-10T06:29:18;8.88;;;7.18;;
74707;SDS011;63360;50.104;8.074;2023-06-10T06:31:45;8.20;;;7.20;;
74707;SDS011;63360;50.104;8.074;2023-06-10T06:34:11;9.15;;;7.95;;
74707;SDS011;63360;50.104;8.074;2023-06-10T06:36:41;8.18;;;7.18;;
74707;SDS011;63360;50.104;8.074;2023-06-10T06:39:08;9.95;;;7.30;;
74707;SDS011;63360;50.104;8.074;2023-06-10T06:41:34;8.48;;;7.28;;
74707;SDS011;63360;50.104;8.074;2023-06-10T06:44:01;10.13;;;7.30;;
74707;SDS011;63360;50.104;8.074;2023-06-10T06:46:27;8.60;;;7.38;;
74707;SDS011;63360;50.104;8.074;2023-06-10T06:48:54;8.95;;;7.03;;
74707;SDS011;63360;50.104;8.074;2023-06-10T06:51:21;8.50;;;7.13;;
74707;SDS011;63360;50.104;8.074;2023-06-10T06:53:47;9.45;;;7.50;;
74707;SDS011;63360;50.104;8.074;2023-06-10T06:56:16;8.80;;;7.60;;
74707;SDS011;63360;50.104;8.074;2023-06-10T06:58:43;8.23;;;6.82;;
74707;SDS011;63360;50.104;8.074;2023-06-10T07:01:09;8.30;;;7.18;;
74707;SDS011;63360;50.104;8.074;2023-06-10T07:03:36;8.63;;;7.30;;
74707;SDS011;63360;50.104;8.074;2023-06-10T07:06:02;9.73;;;7.00;;
74707;SDS011;63360;50.104;8.074;2023-06-10T07:08:29;9.83;;;7.40;;
74707;SDS011;63360;50.104;8.074;2023-06-10T07:10:55;7.53;;;6.72;;
74707;SDS011;63360;50.104;8.074;2023-06-10T07:13:22;9.52;;;7.35;;
74707;SDS011;63360;50.104;8.074;2023-06-10T07:15:48;8.82;;;7.22;;
74707;SDS011;63360;50.104;8.074;2023-06-10T07:18:15;8.82;;;7.10;;
74707;SDS011;63360;50.104;8.074;2023-06-10T07:20:45;8.10;;;7.30;;
74707;SDS011;63360;50.104;8.074;2023-06-10T07:23:11;8.45;;;7.13;;
74707;SDS011;63360;50.104;8.074;2023-06-10T07:25:38;8.10;;;7.05;;
74707;SDS011;63360;50.104;8.074;2023-06-10T07:28:04;8.93;;;7.35;;
74707;SDS011;63360;50.104;8.074;2023-06-10T07:30:31;9.05;;;7.63;;
74707;SDS011;63360;50.104;8.074;2023-06-10T07:32:57;7.50;;;6.63;;
74707;SDS011;63360;50.104;8.074;2023-06-10T07:35:24;8.43;;;7.07;;
74707;SDS011;63360;50.104;8.074;2023-06-10T07:37:51;9.93;;;7.38;;
74707;SDS011;63360;50.104;8.074;2023-06-10T07:40:17;9.32;;;7.00;;
74707;SDS011;63360;50.104;8.074;2023-06-10T07:42:44;9.38;;;7.47;;
74707;SDS011;63360;50.104;8.074;2023-06-10T07:45:10;10.70;;;7.60;;
74707;SDS011;63360;50.104;8.074;2023-06-10T07:47:37;9.85;;;7.20;;
74707;SDS011;63360;50.104;8.074;2023-06-10T07:50:04;8.18;;;7.35;;
74707;SDS011;63360;50.104;8.074;2023-06-10T07:52:30;8.48;;;7.15;;
74707;SDS011;63360;50.104;8.074;2023-06-10T07:54:57;11.10;;;7.40;;
74707;SDS011;63360;50.104;8.074;2023-06-10T07:57:23;8.77;;;7.40;;
74707;SDS011;63360;50.104;8.074;2023-06-10T07:59:50;10.88;;;7.15;;
74707;SDS011;63360;50.104;8.074;2023-06-10T08:02:17;8.52;;;7.43;;
74707;SDS011;63360;50.104;8.074;2023-06-10T08:04:43;9.57;;;7.40;;
74707;SDS011;63360;50.104;8.074;2023-06-10T08:07:09;8.60;;;7.70;;
74707;SDS011;63360;50.104;8.074;2023-06-10T08:09:36;9.80;;;7.70;;
74707;SDS011;63360;50.104;8.074;2023-06-10T08:12:02;10.13;;;8.10;;
74707;SDS011;63360;50.104;8.074;2023-06-10T08:14:29;8.80;;;7.25;;
74707;SDS011;63360;50.104;8.074;2023-06-10T08:16:56;10.20;;;8.07;;
74707;SDS011;63360;50.104;8.074;2023-06-10T08:19:22;10.45;;;7.78;;
74707;SDS011;63360;50.104;8.074;2023-06-10T08:21:49;10.23;;;7.27;;
74707;SDS011;63360;50.104;8.074;2023-06-10T08:24:15;10.20;;;7.80;;
74707;SDS011;63360;50.104;8.074;2023-06-10T08:26:44;11.48;;;7.60;;
74707;SDS011;63360;50.104;8.074;2023-06-10T08:29:11;9.75;;;7.38;;
74707;SDS011;63360;50.104;8.074;2023-06-10T08:31:42;9.13;;;7.50;;
74707;SDS011;63360;50.104;8.074;2023-06-10T08:34:09;8.53;;;7.63;;
74707;SDS011;63360;50.104;8.074;2023-06-10T08:36:36;8.32;;;7.43;;
74707;SDS011;63360;50.104;8.074;2023-06-10T08:39:03;9.57;;;7.50;;
74707;SDS011;63360;50.104;8.074;2023-06-10T08:41:30;9.80;;;7.40;;
74707;SDS011;63360;50.104;8.074;2023-06-10T08:44:04;9.98;;;6.78;;
74707;SDS011;63360;50.104;8.074;2023-06-10T08:46:39;8.60;;;7.57;;
74707;SDS011;63360;50.104;8.074;2023-06-10T08:49:11;9.75;;;6.93;;
74707;SDS011;63360;50.104;8.074;2023-06-10T08:51:43;9.38;;;7.40;;
74707;SDS011;63360;50.104;8.074;2023-06-10T08:54:17;9.57;;;7.28;;
74707;SDS011;63360;50.104;8.074;2023-06-10T08:56:48;9.05;;;7.07;;
74707;SDS011;63360;50.104;8.074;2023-06-10T08:59:17;8.70;;;7.10;;
74707;SDS011;63360;50.104;8.074;2023-06-10T09:01:44;8.57;;;7.30;;
74707;SDS011;63360;50.104;8.074;2023-06-10T09:04:11;9.43;;;7.13;;
74707;SDS011;63360;50.104;8.074;2023-06-10T09:06:39;7.25;;;5.28;;
74707;SDS011;63360;50.104;8.074;2023-06-10T09:09:06;7.47;;;5.05;;
74707;SDS011;63360;50.104;8.074;2023-06-10T09:11:33;11.67;;;6.80;;
74707;SDS011;63360;50.104;8.074;2023-06-10T09:13:59;9.07;;;6.93;;
74707;SDS011;63360;50.104;8.074;2023-06-10T09:16:26;10.98;;;7.32;;
74707;SDS011;63360;50.104;8.074;2023-06-10T09:18:53;7.22;;;5.78;;
74707;SDS011;63360;50.104;8.074;2023-06-10T09:21:22;9.40;;;5.43;;
74707;SDS011;63360;50.104;8.074;2023-06-10T09:23:49;7.37;;;5.40;;
74707;SDS011;63360;50.104;8.074;2023-06-10T09:26:16;7.82;;;5.10;;
74707;SDS011;63360;50.104;8.074;2023-06-10T09:28:49;7.93;;;5.30;;
74707;SDS011;63360;50.104;8.074;2023-06-10T09:31:16;7.40;;;5.45;;
74707;SDS011;63360;50.104;8.074;2023-06-10T09:33:48;10.15;;;6.10;;
74707;SDS011;63360;50.104;8.074;2023-06-10T09:36:23;8.57;;;5.83;;
74707;SDS011;63360;50.104;8.074;2023-06-10T09:38:50;8.23;;;5.95;;
74707;SDS011;63360;50.104;8.074;2023-06-10T09:41:17;7.20;;;6.40;;
74707;SDS011;63360;50.104;8.074;2023-06-10T09:43:44;7.63;;;5.53;;
74707;SDS011;63360;50.104;8.074;2023-06-10T09:46:15;6.70;;;5.40;;
74707;SDS011;63360;50.104;8.074;2023-06-10T09:48:43;7.43;;;6.17;;
74707;SDS011;63360;50.104;8.074;2023-06-10T09:51:11;7.63;;;5.75;;
74707;SDS011;63360;50.104;8.074;2023-06-10T09:53:43;7.30;;;5.60;;
74707;SDS011;63360;50.104;8.074;2023-06-10T09:56:14;8.95;;;5.55;;
74707;SDS011;63360;50.104;8.074;2023-06-10T09:58:40;7.70;;;5.60;;
74707;SDS011;63360;50.104;8.074;2023-06-10T10:01:10;6.90;;;5.30;;
74707;SDS011;63360;50.104;8.074;2023-06-10T10:03:44;8.10;;;5.60;;
74707;SDS011;63360;50.104;8.074;2023-06-10T10:06:14;7.57;;;5.53;;
74707;SDS011;63360;50.104;8.074;2023-06-10T10:08:42;6.78;;;4.97;;
74707;SDS011;63360;50.104;8.074;2023-06-10T10:11:10;6.18;;;5.50;;
74707;SDS011;63360;50.104;8.074;2023-06-10T10:13:36;6.87;;;5.57;;
74707;SDS011;63360;50.104;8.074;2023-06-10T10:16:06;8.23;;;5.13;;
74707;SDS011;63360;50.104;8.074;2023-06-10T10:18:42;8.50;;;5.70;;
74707;SDS011;63360;50.104;8.074;2023-06-10T10:21:12;6.45;;;5.20;;
74707;SDS011;63360;50.104;8.074;2023-06-10T10:23:57;7.13;;;5.60;;
74707;SDS011;63360;50.104;8.074;2023-06-10T10:26:35;8.80;;;5.10;;
74707;SDS011;63360;50.104;8.074;2023-06-10T10:29:10;6.47;;;4.70;;
74707;SDS011;63360;50.104;8.074;2023-06-10T10:31:42;8.80;;;5.07;;
74707;SDS011;63360;50.104;8.074;2023-06-10T10:34:15;9.63;;;5.43;;
74707;SDS011;63360;50.104;8.074;2023-06-10T10:36:45;9.40;;;5.43;;
74707;SDS011;63360;50.104;8.074;2023-06-10T10:39:12;7.97;;;5.17;;
74707;SDS011;63360;50.104;8.074;2023-06-10T10:41:39;6.60;;;5.30;;
74707;SDS011;63360;50.104;8.074;2023-06-10T10:44:06;9.15;;;5.82;;
74707;SDS011;63360;50.104;8.074;2023-06-10T10:46:43;6.30;;;5.22;;
74707;SDS011;63360;50.104;8.074;2023-06-10T10:49:14;6.03;;;5.30;;
74707;SDS011;63360;50.104;8.074;2023-06-10T10:51:57;6.20;;;5.27;;
74707;SDS011;63360;50.104;8.074;2023-06-10T10:54:28;9.43;;;5.18;;
74707;SDS011;63360;50.104;8.074;2023-06-10T10:57:10;6.55;;;5.30;;
74707;SDS011;63360;50.104;8.074;2023-06-10T11:02:36;7.03;;;5.18;;
74707;SDS011;63360;50.104;8.074;2023-06-10T11:05:13;6.33;;;4.90;;
74707;SDS011;63360;50.104;8.074;2023-06-10T11:07:51;8.48;;;5.13;;
74707;SDS011;63360;50.104;8.074;2023-06-10T11:10:20;6.88;;;5.13;;
74707;SDS011;63360;50.104;8.074;2023-06-10T11:12:56;7.55;;;5.10;;
74707;SDS011;63360;50.104;8.074;2023-06-10T11:15:27;5.82;;;4.82;;
74707;SDS011;63360;50.104;8.074;2023-06-10T11:20:41;6.28;;;4.90;;
74707;SDS011;63360;50.104;8.074;2023-06-10T11:23:08;6.80;;;4.95;;
74707;SDS011;63360;50.104;8.074;2023-06-10T11:25:40;7.78;;;4.53;;
74707;SDS011;63360;50.104;8.074;2023-06-10T11:28:17;6.25;;;4.70;;
74707;SDS011;63360;50.104;8.074;2023-06-10T11:30:45;6.00;;;4.50;;
74707;SDS011;63360;50.104;8.074;2023-06-10T11:33:23;9.18;;;5.20;;
74707;SDS011;63360;50.104;8.074;2023-06-10T11:35:50;9.35;;;6.07;;
74707;SDS011;63360;50.104;8.074;2023-06-10T11:38:17;8.43;;;5.47;;
74707;SDS011;63360;50.104;8.074;2023-06-10T11:40:48;8.48;;;5.00;;
74707;SDS011;63360;50.104;8.074;2023-06-10T11:43:18;6.93;;;4.97;;
74707;SDS011;63360;50.104;8.074;2023-06-10T11:45:45;5.78;;;4.68;;
74707;SDS011;63360;50.104;8.074;2023-06-10T11:48:12;7.00;;;4.90;;
74707;SDS011;63360;50.104;8.074;2023-06-10T11:50:39;7.75;;;5.20;;
74707;SDS011;63360;50.104;8.074;2023-06-10T11:53:08;6.80;;;5.10;;
74707;SDS011;63360;50.104;8.074;2023-06-10T11:55:50;7.33;;;5.50;;
74707;SDS011;63360;50.104;8.074;2023-06-10T12:00:47;7.70;;;6.10;;
74707;SDS011;63360;50.104;8.074;2023-06-10T12:03:15;7.50;;;5.45;;
74707;SDS011;63360;50.104;8.074;2023-06-10T12:06:01;7.07;;;5.43;;
74707;SDS011;63360;50.104;8.074;2023-06-10T12:08:29;7.47;;;4.80;;
74707;SDS011;63360;50.104;8.074;2023-06-10T12:10:59;5.75;;;4.90;;
74707;SDS011;63360;50.104;8.074;2023-06-10T12:13:26;8.68;;;5.60;;
74707;SDS011;63360;50.104;8.074;2023-06-10T12:15:53;6.47;;;5.07;;
74707;SDS011;63360;50.104;8.074;2023-06-10T12:18:23;7.00;;;5.10;;
74707;SDS011;63360;50.104;8.074;2023-06-10T12:20:50;8.03;;;5.20;;
74707;SDS011;63360;50.104;8.074;2023-06-10T12:23:18;7.13;;;4.72;;
74707;SDS011;63360;50.104;8.074;2023-06-10T12:25:49;5.97;;;4.93;;
74707;SDS011;63360;50.104;8.074;2023-06-10T12:28:23;6.50;;;5.43;;
74707;SDS011;63360;50.104;8.074;2023-06-10T12:30:51;6.22;;;4.90;;
74707;SDS011;63360;50.104;8.074;2023-06-10T12:33:21;8.53;;;5.57;;
74707;SDS011;63360;50.104;8.074;2023-06-10T12:35:48;6.28;;;5.10;;
74707;SDS011;63360;50.104;8.074;2023-06-10T12:38:21;7.07;;;5.18;;
74707;SDS011;63360;50.104;8.074;2023-06-10T12:40:50;8.00;;;5.43;;
74707;SDS011;63360;50.104;8.074;2023-06-10T12:43:20;8.27;;;5.40;;
74707;SDS011;63360;50.104;8.074;2023-06-10T12:45:48;5.87;;;4.90;;
74707;SDS011;63360;50.104;8.074;2023-06-10T12:48:19;6.68;;;5.50;;
74707;SDS011;63360;50.104;8.074;2023-06-10T12:50:52;7.03;;;5.13;;
74707;SDS011;63360;50.104;8.074;2023-06-10T12:53:20;6.03;;;4.68;;
74707;SDS011;63360;50.104;8.074;2023-06-10T12:55:49;7.05;;;5.07;;
74707;SDS011;63360;50.104;8.074;2023-06-10T12:58:16;6.00;;;4.50;;
74707;SDS011;63360;50.104;8.074;2023-06-10T13:00:43;5.47;;;4.43;;
74707;SDS011;63360;50.104;8.074;2023-06-10T13:03:09;6.43;;;4.65;;
74707;SDS011;63360;50.104;8.074;2023-06-10T13:05:37;5.32;;;4.70;;
74707;SDS011;63360;50.104;8.074;2023-06-10T13:08:05;7.03;;;5.18;;
74707;SDS011;63360;50.104;8.074;2023-06-10T13:10:33;5.43;;;4.80;;
74707;SDS011;63360;50.104;8.074;2023-06-10T13:13:01;7.10;;;5.13;;
74707;SDS011;63360;50.104;8.074;2023-06-10T13:15:28;5.65;;;5.05;;
74707;SDS011;63360;50.104;8.074;2023-06-10T13:17:55;6.47;;;4.88;;
74707;SDS011;63360;50.104;8.074;2023-06-10T13:20:21;5.97;;;4.97;;
74707;SDS011;63360;50.104;8.074;2023-06-10T13:22:48;6.83;;;4.67;;
74707;SDS011;63360;50.104;8.074;2023-06-10T13:25:15;6.78;;;5.30;;
74707;SDS011;63360;50.104;8.074;2023-06-10T13:27:42;7.93;;;5.70;;
74707;SDS011;63360;50.104;8.074;2023-06-10T13:30:09;8.05;;;4.80;;
74707;SDS011;63360;50.104;8.074;2023-06-10T13:32:37;7.10;;;5.15;;
74707;SDS011;63360;50.104;8.074;2023-06-10T13:35:03;7.97;;;5.03;;
74707;SDS011;63360;50.104;8.074;2023-06-10T13:37:30;7.68;;;4.97;;
74707;SDS011;63360;50.104;8.074;2023-06-10T13:39:57;6.47;;;5.20;;
74707;SDS011;63360;50.104;8.074;2023-06-10T13:42:23;6.85;;;5.20;;
74707;SDS011;63360;50.104;8.074;2023-06-10T13:44:52;12.23;;;5.65;;
74707;SDS011;63360;50.104;8.074;2023-06-10T13:47:19;6.07;;;5.17;;
74707;SDS011;63360;50.104;8.074;2023-06-10T13:49:45;7.10;;;5.47;;
74707;SDS011;63360;50.104;8.074;2023-06-10T13:52:12;6.32;;;5.13;;
74707;SDS011;63360;50.104;8.074;2023-06-10T13:54:39;8.65;;;5.18;;
74707;SDS011;63360;50.104;8.074;2023-06-10T13:57:05;6.40;;;5.20;;
74707;SDS011;63360;50.104;8.074;2023-06-10T13:59:32;6.03;;;5.20;;
74707;SDS011;63360;50.104;8.074;2023-06-10T14:01:58;6.13;;;4.70;;
74707;SDS011;63360;50.104;8.074;2023-06-10T14:04:25;8.00;;;5.25;;
74707;SDS011;63360;50.104;8.074;2023-06-10T14:06:51;7.35;;;5.10;;
74707;SDS011;63360;50.104;8.074;2023-06-10T14:09:18;6.40;;;5.28;;
74707;SDS011;63360;50.104;8.074;2023-06-10T14:11:45;8.13;;;5.10;;
74707;SDS011;63360;50.104;8.074;2023-06-10T14:14:11;8.05;;;5.35;;
74707;SDS011;63360;50.104;8.074;2023-06-10T14:16:38;6.97;;;5.30;;
74707;SDS011;63360;50.104;8.074;2023-06-10T14:19:08;8.00;;;5.57;;
74707;SDS011;63360;50.104;8.074;2023-06-10T14:21:35;7.68;;;5.72;;
74707;SDS011;63360;50.104;8.074;2023-06-10T14:24:01;7.30;;;5.63;;
74707;SDS011;63360;50.104;8.074;2023-06-10T14:26:28;7.00;;;5.60;;
74707;SDS011;63360;50.104;8.074;2023-06-10T14:28:55;7.80;;;6.05;;
74707;SDS011;63360;50.104;8.074;2023-06-10T14:31:21;9.85;;;5.30;;
74707;SDS011;63360;50.104;8.074;2023-06-10T14:33:48;6.88;;;5.75;;
74707;SDS011;63360;50.104;8.074;2023-06-10T14:36:14;8.40;;;5.37;;
74707;SDS011;63360;50.104;8.074;2023-06-10T14:38:41;7.75;;;5.60;;
74707;SDS011;63360;50.104;8.074;2023-06-10T14:41:07;6.50;;;5.20;;
74707;SDS011;63360;50.104;8.074;2023-06-10T14:43:33;6.53;;;5.30;;
74707;SDS011;63360;50.104;8.074;2023-06-10T14:46:00;7.25;;;5.97;;
74707;SDS011;63360;50.104;8.074;2023-06-10T14:48:26;7.47;;;5.60;;
74707;SDS011;63360;50.104;8.074;2023-06-10T14:50:53;9.23;;;5.60;;
74707;SDS011;63360;50.104;8.074;2023-06-10T14:53:21;7.10;;;5.50;;
74707;SDS011;63360;50.104;8.074;2023-06-10T14:55:47;8.30;;;5.82;;
74707;SDS011;63360;50.104;8.074;2023-06-10T14:58:14;8.90;;;5.60;;